Список аэропортов
Фактическая погода:

01 марта, 22:20
Температура: +14°C (+12.9*)
Ветер: западный 4 м/с
Давление: *758 мм
неб. 1200 м
Время (МСК)Темп. СВетерВлажностьДавлениеОблачностьОсадки
21:00+14З, 2 м/с72%1011 гПаясно
22:00+13З, 3 м/с75%1011 гПас прояснениями
23:00+12ЮЗ, 2 м/с83%1011 гПамалооблачно
02 марта
00:00+13ЮЗ, 4 м/с74%1011 гПаясно
01:00+14ЮЗ, 5 м/с69%1010 гПас прояснениями
02:00+13З, 7 м/с64%1010 гПаясно
03:00+12З, 8 м/с68%1011 гПаясно
04:00+12З, 7 м/с70%1011 гПаясно
05:00+12З, 7 м/с59%1011 гПаясно
06:00+11СЗ, 8 м/с35%1011 гПаясно
07:00+11СЗ, 7 м/с37%1011 гПаясно
08:00+10З, 6 м/с40%1011 гПаясно
09:00+11З, 6 м/с44%1012 гПаясно
10:00+13СЗ, 7 м/с42%1012 гПаясно
11:00+14СЗ, 8 м/с36%1013 гПаясно
12:00+15СЗ, 7 м/с36%1013 гПаясно
13:00+15СЗ, 8 м/с34%1013 гПаясно
14:00+16СЗ, 7 м/с32%1013 гПаясно
15:00+16С, 7 м/с33%1013 гПаясно
16:00+16С, 6 м/с33%1013 гПаясно
17:00+16С, 6 м/с34%1013 гПаясно
18:00+15С, 5 м/с36%1014 гПаясно
19:00+14С, 4 м/с39%1014 гПаясно
20:00+13С, 3 м/с44%1015 гПаясно
21:00+11СЗ, 2 м/с50%1016 гПаясно
22:00+10СЗ, 2 м/с55%1016 гПаясно
23:00+9СЗ, 1 м/с61%1017 гПаясно
03 марта
00:00+8СЗ, 1 м/с64%1017 гПаясно
01:00+8СЗ, 1 м/с66%1018 гПаясно
02:00+7СЗ, 1 м/с71%1018 гПаясно
03:00+7СЗ, 2 м/с73%1018 гПаясно
04:00+7З, 2 м/с76%1018 гПаясно
05:00+6З, 2 м/с80%1018 гПаясно
06:00+6СЗ, 2 м/с83%1017 гПаясно
07:00+6З, 2 м/с83%1018 гПаясно
08:00+6З, 2 м/с82%1018 гПаясно
09:00+8З, 2 м/с70%1018 гПаясно
10:00+12З, 1 м/с56%1018 гПамалооблачно
11:00+15СВ, 1 м/с46%1019 гПас прояснениями
12:00+16СВ, 3 м/с44%1019 гПас прояснениями
13:00+17В, 4 м/с44%1019 гПас прояснениями
14:00+17В, 4 м/с43%1018 гПас прояснениями
15:00+17СВ, 5 м/с42%1018 гПас прояснениями
16:00+17СВ, 5 м/с45%1018 гПаоблачно
17:00+16СВ, 5 м/с46%1018 гПаоблачно
18:00+15СВ, 4 м/с49%1019 гПаясно
19:00+14СВ, 3 м/с54%1019 гПаясно
20:00+13СВ, 2 м/с62%1020 гПаясно
21:00+12С, 2 м/с73%1020 гПаясно